Fort Walton Beach, Florida
Current Conditions -  °F | °C
As of 11:16 AM on Saturday 20 Dec 2014 (Local Time) from KQBL Reporting Station
Light Rain Light Rain  
Wind Chill: 52°   Ceiling: 1400
Heat Index: 52°   Visibility: 3mi
Dew Point: 50°   Wind: 5mph
Humidity: 94%   Direction: 360°N
Pressure: 30.14"   Gusts: NA
Location:  30.4°N, 86.61°W
Report Text: KQBL 201716Z AUTO 36004KT 3SM -RA FEW004 BKN014 BKN025 11/10 A3014 RMK AO2 CIG 014V021
Loading
Personal Weather Stations






























Interactive Weather Map New forecast layout! Learn more

10-Day Weather Forecast

Advertisements
Track Severe Weather on mobile